Time;durP1;ratioP1;P1;durP2;ratioP2;P2;SDS_P1;SDS_P2;PMS_P1;PMS_P2;Temp;Humidity;BMP_temperature;BMP_pressure;BME280_temperature;BME280_humidity;BME280_pressure;Samples;Min_cycle;Max_cycle;Signal;HPM_P1;HPM_P2
2021/12/05 00:22:36;;;;;;;4.53;2.72;;;6.00;83.20;;;;;;5017466;28;20272;-71
2021/12/05 00:25:08;;;;;;;5.82;2.42;;;5.90;83.00;;;;;;5022592;28;20201;-70
2021/12/05 00:27:42;;;;;;;5.10;2.53;;;5.90;82.90;;;;;;5019756;28;20212;-70
2021/12/05 00:30:35;;;;;;;7.13;2.88;;;5.90;83.00;;;;;;5025325;28;20701;-69
2021/12/05 00:33:19;;;;;;;7.63;2.83;;;5.90;82.90;;;;;;5025732;28;20206;-70
2021/12/05 00:42:02;;;;;;;10.63;3.10;;;5.80;82.90;;;;;;5018789;28;20210;-71
2021/12/05 00:45:06;;;;;;;5.40;2.70;;;5.80;82.80;;;;;;5022393;28;20240;-70
2021/12/05 00:47:45;;;;;;;7.35;2.80;;;5.80;82.70;;;;;;5020261;28;20605;-70
2021/12/05 00:53:41;;;;;;;6.80;3.33;;;5.70;82.60;;;;;;5025062;28;20539;-70
2021/12/05 00:56:20;;;;;;;13.00;3.65;;;5.70;82.60;;;;;;5023319;28;20229;-69
2021/12/05 01:04:46;;;;;;;8.73;2.50;;;5.60;82.70;;;;;;4975930;28;20611;-70
2021/12/05 01:07:28;;;;;;;5.28;2.50;;;5.60;82.70;;;;;;5023162;28;20236;-71
2021/12/05 01:10:09;;;;;;;7.47;3.75;;;5.60;82.70;;;;;;5014860;28;20263;-69
2021/12/05 01:15:39;;;;;;;8.35;3.78;;;5.60;82.40;;;;;;5017879;28;20254;-70
2021/12/05 01:18:11;;;;;;;6.80;2.35;;;5.60;82.50;;;;;;5019672;28;20222;-70
2021/12/05 01:20:54;;;;;;;10.93;2.72;;;5.60;82.40;;;;;;5025274;28;20204;-70
2021/12/05 01:23:32;;;;;;;8.73;2.85;;;5.60;82.20;;;;;;5022495;28;20663;-70
2021/12/05 01:26:04;;;;;;;9.85;2.60;;;5.60;82.30;;;;;;5018350;28;20228;-69
2021/12/05 01:28:52;;;;;;;8.15;3.10;;;5.50;82.40;;;;;;5017587;28;20202;-70
2021/12/05 01:31:30;;;;;;;13.18;3.20;;;5.50;82.30;;;;;;5037455;28;20237;-71
2021/12/05 01:34:11;;;;;;;11.43;3.00;;;5.50;82.30;;;;;;5022654;28;20237;-70
2021/12/05 01:36:48;;;;;;;8.70;2.67;;;5.60;82.40;;;;;;5021509;28;20224;-71
2021/12/05 01:39:31;;;;;;;6.60;2.78;;;5.60;82.30;;;;;;5031141;28;20217;-71
2021/12/05 01:48:24;;;;;;;5.60;2.35;;;5.50;82.10;;;;;;5018656;28;20311;-70
2021/12/05 01:53:54;;;;;;;10.55;2.72;;;5.50;82.20;;;;;;5020028;28;20561;-70
2021/12/05 01:59:37;;;;;;;14.20;2.90;;;5.50;82.20;;;;;;5017112;28;20303;-70
2021/12/05 02:16:36;;;;;;;7.35;2.75;;;5.60;82.30;;;;;;5021030;28;20240;-71
2021/12/05 02:30:45;;;;;;;10.52;2.83;;;5.70;82.20;;;;;;5023563;28;20301;-73
2021/12/05 02:41:34;;;;;;;8.63;2.40;;;5.80;81.90;;;;;;5024416;28;20306;-71
2021/12/05 02:44:05;;;;;;;6.20;2.65;;;5.80;81.80;;;;;;5024126;28;20253;-69
2021/12/05 02:46:33;;;;;;;11.27;3.03;;;5.80;81.80;;;;;;5021227;28;20669;-71
2021/12/05 02:49:05;;;;;;;9.95;2.95;;;5.80;81.90;;;;;;5024194;28;20331;-68
2021/12/05 02:51:33;;;;;;;11.45;2.83;;;5.80;81.80;;;;;;5024388;28;20234;-72
2021/12/05 02:54:06;;;;;;;10.27;2.50;;;5.80;81.80;;;;;;5025997;28;20208;-68
2021/12/05 02:56:40;;;;;;;7.95;2.67;;;5.80;81.80;;;;;;5023546;28;20228;-72
2021/12/05 02:59:19;;;;;;;10.98;3.22;;;5.80;81.70;;;;;;5022529;28;20197;-69
2021/12/05 03:01:55;;;;;;;9.02;2.95;;;5.80;81.70;;;;;;5025974;28;21055;-73
2021/12/05 03:04:28;;;;;;;6.35;2.72;;;5.80;81.60;;;;;;5029205;28;20690;-73
2021/12/05 03:06:57;;;;;;;6.38;2.60;;;5.80;81.60;;;;;;5029204;28;20235;-69
2021/12/05 03:09:27;;;;;;;4.68;2.33;;;5.80;81.70;;;;;;5030849;28;20629;-73
2021/12/05 03:11:55;;;;;;;8.20;2.97;;;5.80;81.60;;;;;;5026924;28;20268;-69
2021/12/05 03:14:24;;;;;;;8.40;2.65;;;5.80;81.60;;;;;;5023018;28;20210;-69
2021/12/05 03:16:54;;;;;;;10.05;2.80;;;5.80;81.70;;;;;;5016773;28;20237;-69
2021/12/05 03:19:24;;;;;;;7.43;2.40;;;5.80;81.70;;;;;;5022083;28;20271;-69
2021/12/05 03:21:53;;;;;;;9.88;2.92;;;5.80;81.60;;;;;;5021230;28;20832;-69
2021/12/05 03:24:26;;;;;;;7.63;2.65;;;5.80;81.50;;;;;;5026777;28;20600;-68
2021/12/05 03:26:56;;;;;;;11.35;3.30;;;5.80;81.50;;;;;;5030208;28;20712;-71
2021/12/05 03:29:25;;;;;;;7.85;3.00;;;5.70;81.50;;;;;;5025530;28;20209;-72
2021/12/05 03:31:55;;;;;;;6.65;2.65;;;5.70;81.50;;;;;;5025353;28;20336;-69
2021/12/05 03:34:28;;;;;;;5.65;2.45;;;5.70;81.40;;;;;;5025676;28;20204;-70
2021/12/05 03:37:03;;;;;;;7.00;3.10;;;5.70;81.40;;;;;;5042235;28;20232;-72
2021/12/05 03:39:35;;;;;;;6.22;2.10;;;5.70;81.30;;;;;;5019912;28;20201;-72
2021/12/05 03:42:06;;;;;;;5.95;2.75;;;5.60;81.40;;;;;;5024362;28;20205;-74
2021/12/05 03:44:36;;;;;;;4.50;2.25;;;5.60;81.40;;;;;;5027493;28;20247;-71
2021/12/05 03:47:07;;;;;;;9.18;2.63;;;5.60;81.50;;;;;;5039843;28;20706;-71
2021/12/05 03:49:38;;;;;;;11.98;3.22;;;5.60;81.50;;;;;;5025913;28;20207;-80
2021/12/05 03:52:10;;;;;;;8.38;2.95;;;5.60;81.50;;;;;;5027183;28;20213;-67
2021/12/05 03:54:41;;;;;;;7.88;2.50;;;5.60;81.50;;;;;;5021203;28;20189;-72
2021/12/05 03:57:09;;;;;;;11.55;3.33;;;5.70;81.50;;;;;;5028285;28;20230;-70
2021/12/05 03:59:37;;;;;;;9.02;2.30;;;5.70;81.50;;;;;;5028575;28;20262;-77
2021/12/05 04:02:07;;;;;;;7.57;2.67;;;5.60;81.40;;;;;;5028695;28;20608;-71
2021/12/05 04:04:39;;;;;;;11.07;2.80;;;5.60;81.40;;;;;;5028228;28;20212;-73
2021/12/05 04:07:09;;;;;;;12.10;2.63;;;5.60;81.30;;;;;;5028416;28;20291;-69
2021/12/05 04:09:37;;;;;;;9.93;2.45;;;5.60;81.50;;;;;;5028395;28;20205;-69
2021/12/05 04:12:07;;;;;;;7.80;2.42;;;5.60;81.50;;;;;;5028173;28;20220;-69
2021/12/05 04:14:42;;;;;;;8.25;2.90;;;5.60;81.50;;;;;;5029637;28;20545;-71
2021/12/05 04:17:13;;;;;;;6.65;2.65;;;5.70;81.40;;;;;;5027449;28;20240;-71
2021/12/05 04:19:42;;;;;;;5.22;2.22;;;5.70;81.40;;;;;;5025535;28;20209;-73
2021/12/05 04:22:10;;;;;;;7.68;2.30;;;5.70;81.40;;;;;;5028004;28;20202;-73
2021/12/05 04:24:41;;;;;;;6.55;2.63;;;5.70;81.40;;;;;;5027611;28;20645;-71
2021/12/05 04:27:12;;;;;;;4.78;2.20;;;5.70;81.30;;;;;;5026430;28;20225;-71
2021/12/05 04:29:40;;;;;;;8.85;2.60;;;5.60;81.20;;;;;;5027884;28;20220;-71
2021/12/05 04:32:09;;;;;;;9.02;2.40;;;5.60;81.30;;;;;;5019814;28;20905;-71
2021/12/05 04:34:37;;;;;;;7.07;2.85;;;5.60;81.30;;;;;;5013207;28;20232;-68
2021/12/05 04:37:07;;;;;;;5.57;2.30;;;5.50;81.30;;;;;;5022026;28;20325;-70
2021/12/05 04:39:37;;;;;;;7.63;2.80;;;5.50;81.30;;;;;;5023331;28;20232;-70
2021/12/05 04:42:06;;;;;;;6.03;2.40;;;5.50;81.20;;;;;;5011833;28;20211;-70
2021/12/05 04:44:36;;;;;;;5.25;2.58;;;5.50;81.20;;;;;;5018590;28;20221;-69
2021/12/05 04:47:05;;;;;;;4.40;2.47;;;5.50;81.10;;;;;;5030573;28;20684;-71
2021/12/05 04:49:34;;;;;;;7.57;2.63;;;5.40;81.10;;;;;;5019104;28;20968;-70
2021/12/05 04:52:02;;;;;;;8.70;2.25;;;5.40;81.10;;;;;;5023861;28;20622;-69
2021/12/05 04:54:31;;;;;;;7.05;2.40;;;5.30;81.30;;;;;;5022344;28;20232;-71
2021/12/05 04:56:59;;;;;;;6.75;2.53;;;5.40;81.30;;;;;;5016061;28;20605;-71
2021/12/05 04:59:35;;;;;;;4.20;2.15;;;5.30;81.20;;;;;;5015907;28;20752;-71
2021/12/05 05:02:08;;;;;;;5.85;2.60;;;5.30;81.30;;;;;;5016080;28;20419;-70
2021/12/05 05:04:42;;;;;;;10.23;3.70;;;5.30;81.30;;;;;;5018643;28;20831;-68
2021/12/05 05:07:17;;;;;;;6.50;2.90;;;5.30;81.20;;;;;;5018046;28;20250;-70
2021/12/05 05:09:45;;;;;;;7.68;2.63;;;5.30;81.10;;;;;;5016158;28;20745;-70
2021/12/05 05:12:14;;;;;;;7.35;2.40;;;5.20;81.00;;;;;;5018273;28;20205;-71
2021/12/05 05:14:42;;;;;;;7.72;2.33;;;5.20;81.10;;;;;;5021700;28;20201;-66
2021/12/05 05:17:12;;;;;;;10.38;2.80;;;5.20;81.10;;;;;;5018962;28;20266;-69
2021/12/05 05:19:44;;;;;;;9.20;2.80;;;5.10;81.10;;;;;;5017125;28;20329;-71
2021/12/05 05:22:23;;;;;;;7.03;2.70;;;5.10;81.10;;;;;;5020253;28;20198;-69
2021/12/05 05:42:15;;;;;;;9.27;2.72;;;4.90;81.20;;;;;;5022123;28;20536;-70
2021/12/05 05:45:05;;;;;;;7.60;3.10;;;4.90;81.10;;;;;;5019501;28;20205;-69
2021/12/05 05:47:38;;;;;;;9.13;2.80;;;4.90;81.10;;;;;;5021567;28;20256;-70
2021/12/05 05:50:08;;;;;;;5.68;2.70;;;4.90;81.20;;;;;;5022561;28;20197;-70
2021/12/05 05:52:38;;;;;;;7.25;2.70;;;4.90;81.30;;;;;;5022588;28;20227;-68
2021/12/05 05:55:07;;;;;;;10.20;3.78;;;5.00;81.40;;;;;;5021161;28;20288;-70
2021/12/05 05:57:40;;;;;;;9.93;3.05;;;5.00;81.30;;;;;;5015250;28;20210;-71
2021/12/05 06:00:15;;;;;;;7.60;3.58;;;5.00;81.20;;;;;;5018391;28;20284;-69
2021/12/05 06:05:34;;;;;;;8.90;4.70;;;4.90;81.30;;;;;;5019484;28;20686;-68
2021/12/05 06:08:02;;;;;;;9.05;3.50;;;4.90;81.30;;;;;;5020822;28;20811;-69
2021/12/05 06:10:31;;;;;;;6.55;3.00;;;4.90;81.20;;;;;;5023003;28;20204;-69
2021/12/05 06:12:59;;;;;;;7.72;3.00;;;4.90;81.20;;;;;;5022956;28;20279;-69
2021/12/05 06:15:29;;;;;;;13.20;3.65;;;4.90;81.30;;;;;;5023163;28;20314;-69
2021/12/05 06:17:58;;;;;;;6.47;3.15;;;4.90;81.30;;;;;;5035580;28;20237;-69
2021/12/05 06:20:29;;;;;;;8.02;3.67;;;4.90;81.40;;;;;;5038053;28;20674;-69
2021/12/05 06:23:02;;;;;;;6.32;2.78;;;4.90;81.30;;;;;;5022684;28;20201;-69
2021/12/05 06:25:34;;;;;;;9.65;3.40;;;4.90;81.30;;;;;;5033900;28;20244;-69
2021/12/05 06:28:05;;;;;;;10.05;3.20;;;4.90;81.40;;;;;;5018654;28;20209;-69
2021/12/05 06:30:44;;;;;;;7.97;3.40;;;4.90;81.60;;;;;;5018601;28;20227;-69
2021/12/05 06:41:55;;;;;;;6.68;3.10;;;5.00;81.40;;;;;;5022748;28;20273;-70
2021/12/05 06:47:12;;;;;;;7.45;2.90;;;5.00;81.40;;;;;;5021339;28;20241;-71
2021/12/05 06:49:40;;;;;;;8.13;2.90;;;5.00;81.40;;;;;;5032724;28;20272;-69
2021/12/05 06:52:17;;;;;;;11.15;4.10;;;5.00;81.40;;;;;;5019923;28;20452;-70
2021/12/05 06:54:47;;;;;;;6.22;2.83;;;5.00;81.40;;;;;;5020863;28;20218;-71
2021/12/05 06:57:15;;;;;;;11.07;3.33;;;5.00;81.60;;;;;;5018836;28;20291;-70
2021/12/05 06:59:47;;;;;;;9.30;3.40;;;5.00;81.40;;;;;;5020263;28;20212;-70
2021/12/05 07:02:17;;;;;;;8.15;2.67;;;5.00;81.40;;;;;;5019887;28;20776;-69
2021/12/05 07:07:36;;;;;;;6.93;2.67;;;5.00;81.30;;;;;;5012563;28;20222;-71
2021/12/05 07:10:08;;;;;;;6.07;3.38;;;5.00;81.30;;;;;;5018928;28;20202;-71
2021/12/05 07:13:19;;;;;;;16.40;3.60;;;5.00;81.30;;;;;;5018071;28;20209;-68
2021/12/05 07:15:46;;;;;;;6.53;2.60;;;4.90;81.10;;;;;;5017259;28;20233;-69
2021/12/05 07:21:16;;;;;;;6.22;2.83;;;4.90;81.20;;;;;;5016452;28;20643;-70
2021/12/05 07:23:53;;;;;;;6.15;2.90;;;4.80;81.20;;;;;;5018032;28;20200;-70
2021/12/05 07:26:29;;;;;;;5.85;3.10;;;4.80;81.10;;;;;;5016650;28;20587;-71
2021/12/05 07:42:47;;;;;;;11.23;4.05;;;4.80;81.40;;;;;;5014826;28;20209;-70
2021/12/05 07:45:21;;;;;;;6.00;3.25;;;4.80;81.40;;;;;;5016295;28;20197;-69
2021/12/05 07:47:51;;;;;;;6.43;3.45;;;4.80;81.50;;;;;;5020021;28;20212;-69
2021/12/05 07:50:23;;;;;;;8.48;2.70;;;4.80;81.40;;;;;;5018616;28;20197;-70
2021/12/05 07:52:54;;;;;;;15.45;3.20;;;4.80;81.50;;;;;;5012122;28;20204;-70
2021/12/05 07:55:26;;;;;;;7.38;3.33;;;4.80;81.60;;;;;;5013938;28;20209;-70
2021/12/05 07:58:10;;;;;;;7.97;3.05;;;4.80;81.60;;;;;;5011711;28;20268;-72
2021/12/05 08:00:49;;;;;;;6.30;3.10;;;4.90;81.60;;;;;;5013510;28;20245;-71
2021/12/05 08:14:47;;;;;;;5.22;2.88;;;4.90;81.70;;;;;;5017638;28;20224;-72
2021/12/05 08:17:18;;;;;;;6.95;2.58;;;5.00;81.80;;;;;;5010991;28;20295;-72
2021/12/05 08:19:46;;;;;;;6.60;2.88;;;5.00;81.80;;;;;;5021850;28;20193;-72
2021/12/05 08:22:16;;;;;;;7.38;2.38;;;5.00;81.70;;;;;;5017068;28;20213;-72
2021/12/05 08:24:47;;;;;;;3.95;2.28;;;5.00;81.70;;;;;;5018807;28;20283;-73
2021/12/05 08:27:15;;;;;;;6.90;2.35;;;5.00;81.70;;;;;;5014001;28;20221;-72
2021/12/05 08:29:49;;;;;;;4.00;2.28;;;5.10;81.70;;;;;;5014804;28;20535;-72
2021/12/05 08:32:29;;;;;;;5.35;2.15;;;5.10;81.70;;;;;;5017340;28;20229;-72
2021/12/05 08:35:16;;;;;;;5.28;2.55;;;5.10;81.70;;;;;;5014702;28;20216;-71
2021/12/05 08:38:36;;;;;;;3.60;2.08;;;5.10;81.70;;;;;;5015384;28;20204;-72
2021/12/05 08:41:18;;;;;;;4.65;2.38;;;5.10;81.80;;;;;;5014754;28;20219;-72
2021/12/05 08:44:02;;;;;;;5.25;2.63;;;5.10;81.70;;;;;;5017353;28;20198;-72
2021/12/05 09:20:37;;;;;;;3.50;1.90;;;5.20;81.90;;;;;;4959325;28;20763;-70
2021/12/05 09:23:37;;;;;;;4.32;2.28;;;5.20;82.10;;;;;;5015008;28;20201;-71
2021/12/05 09:29:27;;;;;;;4.75;2.00;;;5.30;82.10;;;;;;5019908;28;20212;-71
2021/12/05 09:50:59;;;;;;;7.38;2.75;;;5.30;82.00;;;;;;5006025;28;20689;-70
2021/12/05 09:53:03;;;;;;;6.55;2.70;;;5.40;82.10;;;;;;5022937;28;20212;-70
2021/12/05 10:09:21;;;;;;;7.97;2.20;;;5.50;82.10;;;;;;5019391;28;20201;-70
2021/12/05 10:11:58;;;;;;;5.32;1.85;;;5.50;82.10;;;;;;5016449;28;20555;-70
2021/12/05 10:14:47;;;;;;;7.30;2.63;;;5.50;82.10;;;;;;5017254;28;20877;-70
2021/12/05 10:17:39;;;;;;;5.20;2.80;;;5.50;82.20;;;;;;5020345;28;21002;-70
2021/12/05 10:20:27;;;;;;;5.15;2.00;;;5.60;82.20;;;;;;5022715;28;20213;-70
2021/12/05 10:34:33;;;;;;;16.10;2.70;;;5.70;82.30;;;;;;5017251;28;20282;-71
2021/12/05 10:37:10;;;;;;;7.22;2.20;;;5.70;82.30;;;;;;5015487;28;20236;-70
2021/12/05 10:39:38;;;;;;;6.85;2.40;;;5.70;82.20;;;;;;5017414;28;20283;-70
2021/12/05 10:42:35;;;;;;;4.20;1.98;;;5.70;82.20;;;;;;5018592;28;20235;-70
2021/12/05 10:45:05;;;;;;;4.93;2.00;;;5.80;82.30;;;;;;5015538;28;20670;-72
2021/12/05 10:47:37;;;;;;;4.35;1.88;;;5.80;82.20;;;;;;5015586;28;20268;-69
2021/12/05 10:50:27;;;;;;;5.80;2.08;;;5.80;82.30;;;;;;5017300;28;20213;-72
2021/12/05 10:53:17;;;;;;;3.85;2.00;;;5.90;82.30;;;;;;5016079;28;20202;-71
2021/12/05 10:55:45;;;;;;;9.30;2.50;;;5.90;82.30;;;;;;5018274;28;20259;-72
2021/12/05 10:58:15;;;;;;;6.80;2.30;;;5.90;82.20;;;;;;5017868;28;20216;-70
2021/12/05 11:00:43;;;;;;;6.35;2.10;;;5.90;82.20;;;;;;5016063;28;20233;-70
2021/12/05 11:03:15;;;;;;;4.40;2.03;;;5.90;82.10;;;;;;5014447;28;20214;-71
2021/12/05 11:05:44;;;;;;;3.65;1.95;;;5.90;82.20;;;;;;5018853;28;20892;-71
2021/12/05 11:08:32;;;;;;;10.23;2.00;;;6.00;82.20;;;;;;5017591;28;20208;-70
2021/12/05 11:11:08;;;;;;;7.50;1.80;;;6.00;82.10;;;;;;5019536;28;20197;-69
2021/12/05 11:13:39;;;;;;;8.65;2.00;;;5.90;82.00;;;;;;5015889;28;20197;-68
2021/12/05 11:16:36;;;;;;;3.40;1.60;;;5.90;82.00;;;;;;5016069;28;20248;-68
2021/12/05 11:19:21;;;;;;;5.63;1.98;;;5.90;82.00;;;;;;5012376;28;20259;-68
2021/12/05 11:21:53;;;;;;;3.75;1.70;;;5.90;82.00;;;;;;5016460;28;20204;-68
2021/12/05 11:24:28;;;;;;;4.85;1.83;;;5.90;82.00;;;;;;5015797;28;20201;-69
2021/12/05 11:27:13;;;;;;;6.18;1.50;;;6.00;81.90;;;;;;5017629;28;20898;-69
2021/12/05 11:29:50;;;;;;;6.72;1.75;;;6.00;81.90;;;;;;5016985;28;20768;-69
2021/12/05 11:32:24;;;;;;;4.53;1.90;;;6.00;81.80;;;;;;5019398;28;20233;-68
2021/12/05 11:34:52;;;;;;;3.92;1.67;;;6.00;81.80;;;;;;5014893;28;20832;-70
2021/12/05 11:37:20;;;;;;;4.95;1.50;;;6.00;81.60;;;;;;5014876;28;20221;-69
2021/12/05 11:39:50;;;;;;;3.30;1.60;;;6.00;81.60;;;;;;5014079;28;20208;-69
2021/12/05 11:42:21;;;;;;;4.57;1.65;;;6.00;81.70;;;;;;5024074;28;20202;-69
2021/12/05 11:44:54;;;;;;;3.65;1.55;;;6.00;81.70;;;;;;5017481;28;20687;-69
2021/12/05 11:47:24;;;;;;;3.42;1.35;;;6.00;81.60;;;;;;5014892;28;20232;-69
2021/12/05 11:49:52;;;;;;;3.53;1.70;;;6.00;81.60;;;;;;5016099;28;20663;-69
2021/12/05 11:52:25;;;;;;;5.38;1.90;;;6.10;81.60;;;;;;5024658;28;20298;-71
2021/12/05 11:54:53;;;;;;;3.53;1.60;;;6.10;81.50;;;;;;5015612;28;20208;-69
2021/12/05 11:57:24;;;;;;;4.78;1.85;;;6.10;81.50;;;;;;5016235;28;20260;-71
2021/12/05 11:59:56;;;;;;;6.55;2.10;;;6.10;81.50;;;;;;5016512;28;20209;-70
2021/12/05 12:02:26;;;;;;;5.18;1.75;;;6.10;81.50;;;;;;5018086;28;20228;-70
2021/12/05 12:04:58;;;;;;;3.15;1.65;;;6.20;81.40;;;;;;5013922;28;20217;-69
2021/12/05 12:07:35;;;;;;;4.97;1.73;;;6.20;81.40;;;;;;5020871;28;20230;-70
2021/12/05 12:10:12;;;;;;;3.60;1.70;;;6.20;81.40;;;;;;5019494;28;20602;-69
2021/12/05 12:12:41;;;;;;;4.88;1.50;;;6.20;81.30;;;;;;5014436;28;20243;-69
2021/12/05 12:15:14;;;;;;;4.35;1.50;;;6.20;81.30;;;;;;5011107;28;20219;-70
2021/12/05 12:17:43;;;;;;;7.05;3.08;;;6.20;81.20;;;;;;5015724;28;20212;-70
2021/12/05 12:20:17;;;;;;;4.88;1.88;;;6.20;81.20;;;;;;5011178;28;20674;-70
2021/12/05 12:22:45;;;;;;;11.45;2.67;;;6.30;81.20;;;;;;5016511;28;20190;-69
2021/12/05 12:25:18;;;;;;;8.02;2.00;;;6.30;81.20;;;;;;5017451;28;20212;-70
2021/12/05 12:27:48;;;;;;;3.42;1.70;;;6.30;81.20;;;;;;5018401;28;20251;-71
2021/12/05 12:30:24;;;;;;;4.50;1.55;;;6.30;81.10;;;;;;5029912;28;20213;-70
2021/12/05 12:33:01;;;;;;;5.68;1.60;;;6.30;81.10;;;;;;5014094;28;20728;-70
2021/12/05 12:35:32;;;;;;;5.03;1.45;;;6.30;81.10;;;;;;5015032;28;20213;-71
2021/12/05 12:38:06;;;;;;;6.65;1.83;;;6.30;81.10;;;;;;5011984;28;20205;-70
2021/12/05 12:40:41;;;;;;;5.75;1.73;;;6.30;81.10;;;;;;5010828;28;20197;-72
2021/12/05 12:43:30;;;;;;;3.55;1.70;;;6.30;81.10;;;;;;5012593;28;20212;-71
2021/12/05 12:46:19;;;;;;;17.15;11.45;;;6.30;81.10;;;;;;5013609;28;20738;-69
2021/12/05 12:48:48;;;;;;;17.23;13.43;;;6.40;81.10;;;;;;5020688;28;20722;-69
2021/12/05 12:51:29;;;;;;;13.30;9.95;;;6.40;81.10;;;;;;5013945;28;20206;-70
2021/12/05 12:54:02;;;;;;;8.93;6.30;;;6.40;81.10;;;;;;5022094;28;20207;-70
2021/12/05 12:56:30;;;;;;;6.03;4.35;;;6.40;81.00;;;;;;5015709;28;20283;-70
2021/12/05 12:59:01;;;;;;;5.13;2.70;;;6.40;80.90;;;;;;5017619;28;20193;-70
2021/12/05 13:01:48;;;;;;;9.02;3.75;;;6.40;80.80;;;;;;5011671;28;20239;-70
2021/12/05 13:04:37;;;;;;;126.65;61.50;;;6.40;80.70;;;;;;5014963;28;20220;-70
2021/12/05 13:09:59;;;;;;;31.13;16.58;;;6.40;80.70;;;;;;5018894;28;20213;-70
2021/12/05 13:10:09;;;;;;;23.67;13.35;;;6.40;80.70;;;;;;5021455;28;20232;-69
2021/12/05 13:12:53;;;;;;;12.25;6.95;;;6.40;80.60;;;;;;5014860;28;20805;-70
2021/12/05 13:15:34;;;;;;;11.93;7.35;;;6.40;80.60;;;;;;5013958;28;20193;-70
2021/12/05 13:18:18;;;;;;;20.00;10.55;;;6.40;80.60;;;;;;5014579;28;20215;-69
2021/12/05 13:20:52;;;;;;;35.08;18.35;;;6.40;80.60;;;;;;5021159;28;20208;-69
2021/12/05 13:23:27;;;;;;;17.90;9.77;;;6.30;80.50;;;;;;5018964;28;20202;-71
2021/12/05 13:26:11;;;;;;;20.98;11.57;;;6.40;80.50;;;;;;5018837;28;20225;-69
2021/12/05 13:28:42;;;;;;;5.32;2.85;;;6.30;80.60;;;;;;5023256;28;20224;-69
2021/12/05 13:31:38;;;;;;;3.45;1.80;;;6.30;80.20;;;;;;5017393;28;20240;-68
2021/12/05 13:34:31;;;;;;;4.88;2.53;;;6.30;80.20;;;;;;5015183;28;20201;-70
2021/12/05 13:37:16;;;;;;;7.25;3.42;;;6.30;80.40;;;;;;5022099;28;20247;-71
2021/12/05 13:39:48;;;;;;;5.90;2.53;;;6.30;80.50;;;;;;5032093;28;20205;-71
2021/12/05 13:42:21;;;;;;;5.10;2.45;;;6.30;80.60;;;;;;5027082;28;20197;-70
2021/12/05 13:45:06;;;;;;;5.30;2.40;;;6.30;80.60;;;;;;5026334;28;20671;-71
2021/12/05 13:47:39;;;;;;;4.95;2.05;;;6.30;80.60;;;;;;5027621;28;20247;-69
2021/12/05 13:50:28;;;;;;;6.22;2.28;;;6.30;80.50;;;;;;5020886;28;20220;-70
2021/12/05 13:52:59;;;;;;;4.38;2.00;;;6.30;80.50;;;;;;5028826;28;20295;-71
2021/12/05 13:55:40;;;;;;;6.43;2.50;;;6.30;80.40;;;;;;5034129;28;20203;-68
2021/12/05 13:58:20;;;;;;;11.75;2.45;;;6.30;80.50;;;;;;5028268;28;20293;-70
2021/12/05 14:00:53;;;;;;;7.13;2.45;;;6.30;80.50;;;;;;5017075;28;20232;-69
2021/12/05 14:03:41;;;;;;;5.07;2.17;;;6.30;80.50;;;;;;5011529;28;20205;-70
2021/12/05 14:06:40;;;;;;;6.88;2.25;;;6.30;80.50;;;;;;5018788;28;20581;-70
2021/12/05 14:09:12;;;;;;;3.80;2.08;;;6.30;80.60;;;;;;5006354;28;20713;-70
2021/12/05 14:11:45;;;;;;;4.47;2.03;;;6.20;80.50;;;;;;5020839;28;20576;-71
2021/12/05 14:14:14;;;;;;;3.25;1.95;;;6.30;80.60;;;;;;5006244;28;20228;-69
2021/12/05 14:16:45;;;;;;;4.28;2.00;;;6.20;80.60;;;;;;5014513;28;20952;-69
2021/12/05 14:19:15;;;;;;;7.47;2.35;;;6.30;80.70;;;;;;5027383;28;20211;-71
2021/12/05 14:21:49;;;;;;;6.10;2.40;;;6.30;80.70;;;;;;5029120;28;20209;-76
2021/12/05 14:24:20;;;;;;;19.17;10.73;;;6.30;80.70;;;;;;5023612;28;20296;-69
2021/12/05 14:26:50;;;;;;;19.02;7.90;;;6.30;80.70;;;;;;5028120;28;20239;-68
2021/12/05 14:29:21;;;;;;;12.77;5.80;;;6.30;80.60;;;;;;5031059;28;20197;-70
2021/12/05 14:31:52;;;;;;;12.15;5.50;;;6.20;80.70;;;;;;5029836;28;20235;-70
2021/12/05 14:34:21;;;;;;;10.50;4.82;;;6.20;80.80;;;;;;5025496;28;20524;-70
2021/12/05 14:36:54;;;;;;;12.18;6.55;;;6.20;80.70;;;;;;5022602;28;20301;-67
2021/12/05 14:39:27;;;;;;;11.75;6.38;;;6.20;80.80;;;;;;5025385;28;20301;-72
2021/12/05 14:41:59;;;;;;;13.90;5.90;;;6.20;80.80;;;;;;5024923;28;20971;-72
2021/12/05 14:44:27;;;;;;;9.52;4.75;;;6.20;80.90;;;;;;5024225;28;20219;-73
2021/12/05 14:46:59;;;;;;;14.55;4.90;;;6.20;80.90;;;;;;5027427;28;20231;-70
2021/12/05 14:49:30;;;;;;;9.35;3.30;;;6.20;80.90;;;;;;5023724;28;20200;-70
2021/12/05 14:52:01;;;;;;;14.13;3.40;;;6.20;81.00;;;;;;5019650;28;20202;-69
2021/12/05 14:54:34;;;;;;;12.65;4.75;;;6.20;80.90;;;;;;5020634;28;20196;-71
2021/12/05 14:57:12;;;;;;;9.60;3.80;;;6.20;80.90;;;;;;5029258;28;20228;-69
2021/12/05 14:59:42;;;;;;;20.73;7.18;;;6.10;81.00;;;;;;5017863;28;20208;-72
2021/12/05 15:02:11;;;;;;;13.68;4.40;;;6.10;81.10;;;;;;5016213;28;20340;-67
2021/12/05 15:04:43;;;;;;;11.52;3.92;;;6.10;81.00;;;;;;5021073;28;20343;-68
2021/12/05 15:07:12;;;;;;;7.60;3.40;;;6.10;81.10;;;;;;5018795;28;20221;-72
2021/12/05 15:09:42;;;;;;;5.72;2.70;;;6.10;81.20;;;;;;5025727;28;20201;-70
2021/12/05 15:12:14;;;;;;;16.02;4.20;;;6.10;81.20;;;;;;5030946;28;20203;-71
2021/12/05 15:14:44;;;;;;;5.75;2.10;;;6.10;81.20;;;;;;5023060;28;20209;-69
2021/12/05 15:17:16;;;;;;;9.30;3.30;;;6.10;81.20;;;;;;5034866;28;20232;-69
2021/12/05 15:19:46;;;;;;;9.75;3.00;;;6.10;81.30;;;;;;5020835;28;20739;-70
2021/12/05 15:22:36;;;;;;;5.68;2.63;;;6.10;81.20;;;;;;5024665;28;20275;-70
2021/12/05 15:25:07;;;;;;;8.55;2.55;;;6.10;81.20;;;;;;5024913;28;20216;-70
2021/12/05 15:27:37;;;;;;;7.85;2.80;;;6.00;81.30;;;;;;5028898;28;20220;-69
2021/12/05 15:30:09;;;;;;;7.93;2.38;;;6.00;81.30;;;;;;5028103;28;20209;-69
2021/12/05 15:32:38;;;;;;;6.70;2.35;;;6.00;81.30;;;;;;5023455;28;20277;-71
2021/12/05 15:35:10;;;;;;;4.50;1.90;;;6.00;81.30;;;;;;5027570;28;20201;-72
2021/12/05 15:37:47;;;;;;;4.13;1.95;;;6.00;81.30;;;;;;5022358;28;20279;-71
2021/12/05 15:40:15;;;;;;;4.55;1.98;;;6.00;81.40;;;;;;5023385;28;20216;-73
2021/12/05 15:42:44;;;;;;;3.75;1.83;;;6.00;81.40;;;;;;5021614;28;20253;-68
2021/12/05 15:45:16;;;;;;;3.50;1.83;;;6.00;81.40;;;;;;5023114;28;20200;-70
2021/12/05 15:47:46;;;;;;;4.28;2.10;;;6.00;81.40;;;;;;5020798;28;20205;-70
2021/12/05 15:50:16;;;;;;;5.43;2.65;;;6.00;81.40;;;;;;5018566;28;20280;-70
2021/12/05 15:52:48;;;;;;;5.97;1.83;;;6.00;81.40;;;;;;5024737;28;20601;-69
2021/12/05 15:55:19;;;;;;;4.07;2.30;;;6.00;81.50;;;;;;5023315;28;20202;-69
2021/12/05 15:57:51;;;;;;;4.07;2.25;;;6.00;81.40;;;;;;5022077;28;20214;-69
2021/12/05 16:00:23;;;;;;;5.32;2.40;;;6.00;81.40;;;;;;5024881;28;20670;-70
2021/12/05 16:02:59;;;;;;;4.35;2.38;;;6.00;81.40;;;;;;5020318;28;20737;-70
2021/12/05 16:05:28;;;;;;;4.25;2.25;;;6.00;81.40;;;;;;5019002;28;20205;-69
2021/12/05 16:08:05;;;;;;;4.00;2.20;;;5.90;81.50;;;;;;5018032;28;20223;-69
2021/12/05 16:10:34;;;;;;;5.20;2.20;;;5.90;81.50;;;;;;5018810;28;20843;-69
2021/12/05 16:13:10;;;;;;;5.82;3.83;;;5.90;81.50;;;;;;5022409;28;20209;-70
2021/12/05 16:15:39;;;;;;;22.67;12.95;;;5.90;81.40;;;;;;5015177;28;20232;-71
2021/12/05 16:18:08;;;;;;;19.30;11.90;;;5.90;81.30;;;;;;5017355;28;20228;-70
2021/12/05 16:20:41;;;;;;;17.60;11.68;;;5.80;81.30;;;;;;5016721;28;20642;-70
2021/12/05 16:23:14;;;;;;;19.65;13.30;;;5.80;81.50;;;;;;5016738;28;20208;-70
2021/12/05 16:25:47;;;;;;;11.25;8.50;;;5.80;81.60;;;;;;5021585;28;20213;-70
2021/12/05 16:28:22;;;;;;;13.18;8.52;;;5.80;81.50;;;;;;5020876;28;20208;-70
2021/12/05 16:30:58;;;;;;;11.85;6.38;;;5.70;81.60;;;;;;5018399;28;20250;-70
2021/12/05 16:33:28;;;;;;;10.35;6.78;;;5.70;81.80;;;;;;5021913;28;20599;-70
2021/12/05 16:35:58;;;;;;;10.63;6.60;;;5.70;81.80;;;;;;5020835;28;21089;-70
2021/12/05 16:38:34;;;;;;;11.40;5.15;;;5.80;81.80;;;;;;5020186;28;20204;-70
2021/12/05 16:41:08;;;;;;;8.77;5.25;;;5.80;81.90;;;;;;5017237;28;20205;-70
2021/12/05 16:43:40;;;;;;;20.60;14.77;;;5.80;81.80;;;;;;5016788;28;20201;-70
2021/12/05 16:46:12;;;;;;;21.17;15.00;;;5.80;81.80;;;;;;5023428;28;20240;-70
2021/12/05 16:48:43;;;;;;;22.92;14.60;;;5.80;81.80;;;;;;5015710;28;20257;-70
2021/12/05 16:51:17;;;;;;;24.67;15.23;;;5.70;81.70;;;;;;5016027;28;20209;-70
2021/12/05 16:53:50;;;;;;;26.92;15.00;;;5.70;81.90;;;;;;5017039;28;20204;-70
2021/12/05 16:56:46;;;;;;;21.05;12.50;;;5.70;81.90;;;;;;5017379;28;20230;-70
2021/12/05 16:59:18;;;;;;;18.88;12.32;;;5.60;81.80;;;;;;5017094;28;20213;-70
2021/12/05 17:01:47;;;;;;;22.77;16.00;;;5.60;81.80;;;;;;5016709;28;20232;-70
2021/12/05 17:04:16;;;;;;;24.08;15.93;;;5.50;81.80;;;;;;5016630;28;20326;-70
2021/12/05 17:06:51;;;;;;;24.75;15.02;;;5.40;82.00;;;;;;5016857;28;20226;-70
2021/12/05 17:09:21;;;;;;;27.67;19.13;;;5.40;82.20;;;;;;5020890;28;20401;-70
2021/12/05 17:11:49;;;;;;;22.35;16.23;;;5.50;82.20;;;;;;5026447;28;20208;-70
2021/12/05 17:14:26;;;;;;;20.92;14.82;;;5.50;82.20;;;;;;5022044;28;20213;-70
2021/12/05 17:16:55;;;;;;;14.13;10.93;;;5.50;82.20;;;;;;5020424;28;20233;-70
2021/12/05 17:19:30;;;;;;;19.65;10.05;;;5.50;82.10;;;;;;5021872;28;20231;-70